sensor_id;sensor_type;location;lat;lon;timestamp;temperature;humidity
11772;DHT22;12556;55.748;13.194;2024-02-15T00:02:04;4.80;99.90
11772;DHT22;12556;55.748;13.194;2024-02-15T00:04:32;4.70;99.90
11772;DHT22;12556;55.748;13.194;2024-02-15T00:07:00;4.70;99.90
11772;DHT22;12556;55.748;13.194;2024-02-15T00:09:27;4.70;99.90
11772;DHT22;12556;55.748;13.194;2024-02-15T00:11:54;4.70;99.90
11772;DHT22;12556;55.748;13.194;2024-02-15T00:14:21;4.80;99.90
11772;DHT22;12556;55.748;13.194;2024-02-15T00:16:48;4.70;99.90
11772;DHT22;12556;55.748;13.194;2024-02-15T00:19:15;4.70;99.90
11772;DHT22;12556;55.748;13.194;2024-02-15T00:21:44;4.70;99.90
11772;DHT22;12556;55.748;13.194;2024-02-15T00:24:11;4.70;99.90
11772;DHT22;12556;55.748;13.194;2024-02-15T00:26:38;4.70;99.90
11772;DHT22;12556;55.748;13.194;2024-02-15T00:29:05;4.70;99.90
11772;DHT22;12556;55.748;13.194;2024-02-15T00:31:32;4.70;99.90
11772;DHT22;12556;55.748;13.194;2024-02-15T00:33:59;4.70;99.90
11772;DHT22;12556;55.748;13.194;2024-02-15T00:36:27;4.70;99.90
11772;DHT22;12556;55.748;13.194;2024-02-15T00:38:56;4.70;99.90
11772;DHT22;12556;55.748;13.194;2024-02-15T00:41:23;4.70;99.90
11772;DHT22;12556;55.748;13.194;2024-02-15T00:43:50;4.70;99.90
11772;DHT22;12556;55.748;13.194;2024-02-15T00:46:17;4.70;99.90
11772;DHT22;12556;55.748;13.194;2024-02-15T00:48:43;4.70;99.90
11772;DHT22;12556;55.748;13.194;2024-02-15T00:51:10;4.70;99.90
11772;DHT22;12556;55.748;13.194;2024-02-15T00:53:37;4.70;99.90
11772;DHT22;12556;55.748;13.194;2024-02-15T00:56:06;4.80;99.90
11772;DHT22;12556;55.748;13.194;2024-02-15T00:58:33;4.70;99.90
11772;DHT22;12556;55.748;13.194;2024-02-15T01:00:59;4.70;99.90
11772;DHT22;12556;55.748;13.194;2024-02-15T01:03:26;4.80;99.90
11772;DHT22;12556;55.748;13.194;2024-02-15T01:05:53;4.80;99.90
11772;DHT22;12556;55.748;13.194;2024-02-15T01:08:20;4.80;99.90
11772;DHT22;12556;55.748;13.194;2024-02-15T01:10:47;4.80;99.90
11772;DHT22;12556;55.748;13.194;2024-02-15T01:13:15;4.80;99.90
11772;DHT22;12556;55.748;13.194;2024-02-15T01:15:42;4.80;99.90
11772;DHT22;12556;55.748;13.194;2024-02-15T01:18:09;4.80;99.90
11772;DHT22;12556;55.748;13.194;2024-02-15T01:20:36;4.80;99.90
11772;DHT22;12556;55.748;13.194;2024-02-15T01:23:03;4.80;99.90
11772;DHT22;12556;55.748;13.194;2024-02-15T01:25:30;4.80;99.90
11772;DHT22;12556;55.748;13.194;2024-02-15T01:27:57;4.80;99.90
11772;DHT22;12556;55.748;13.194;2024-02-15T01:30:25;4.80;99.90
11772;DHT22;12556;55.748;13.194;2024-02-15T01:32:53;4.80;99.90
11772;DHT22;12556;55.748;13.194;2024-02-15T01:35:20;4.80;99.90
11772;DHT22;12556;55.748;13.194;2024-02-15T01:37:46;4.80;99.90
11772;DHT22;12556;55.748;13.194;2024-02-15T01:40:13;4.80;99.90
11772;DHT22;12556;55.748;13.194;2024-02-15T01:42:40;4.80;99.90
11772;DHT22;12556;55.748;13.194;2024-02-15T01:45:08;4.80;99.90
11772;DHT22;12556;55.748;13.194;2024-02-15T01:47:37;4.80;99.90
11772;DHT22;12556;55.748;13.194;2024-02-15T01:50:06;4.80;99.90
11772;DHT22;12556;55.748;13.194;2024-02-15T01:52:33;4.80;99.90
11772;DHT22;12556;55.748;13.194;2024-02-15T01:55:03;4.80;99.90
11772;DHT22;12556;55.748;13.194;2024-02-15T01:57:33;4.90;99.90
11772;DHT22;12556;55.748;13.194;2024-02-15T02:00:01;4.90;99.90
11772;DHT22;12556;55.748;13.194;2024-02-15T02:02:31;4.80;99.90
11772;DHT22;12556;55.748;13.194;2024-02-15T02:05:01;4.80;99.90
11772;DHT22;12556;55.748;13.194;2024-02-15T02:07:28;4.80;99.90
11772;DHT22;12556;55.748;13.194;2024-02-15T02:09:55;4.80;99.90
11772;DHT22;12556;55.748;13.194;2024-02-15T02:12:22;4.80;99.90
11772;DHT22;12556;55.748;13.194;2024-02-15T02:14:50;4.80;99.90
11772;DHT22;12556;55.748;13.194;2024-02-15T02:17:17;4.80;99.90
11772;DHT22;12556;55.748;13.194;2024-02-15T02:19:45;4.80;99.90
11772;DHT22;12556;55.748;13.194;2024-02-15T02:22:16;4.80;99.90
11772;DHT22;12556;55.748;13.194;2024-02-15T02:27:35;5.30;99.90
11772;DHT22;12556;55.748;13.194;2024-02-15T02:30:03;4.80;99.90
11772;DHT22;12556;55.748;13.194;2024-02-15T02:32:32;4.80;99.90
11772;DHT22;12556;55.748;13.194;2024-02-15T02:35:01;4.80;99.90
11772;DHT22;12556;55.748;13.194;2024-02-15T02:37:29;4.70;99.90
11772;DHT22;12556;55.748;13.194;2024-02-15T02:39:55;4.80;99.90
11772;DHT22;12556;55.748;13.194;2024-02-15T02:42:22;4.80;99.90
11772;DHT22;12556;55.748;13.194;2024-02-15T02:44:50;4.80;99.90
11772;DHT22;12556;55.748;13.194;2024-02-15T02:47:17;4.80;99.90
11772;DHT22;12556;55.748;13.194;2024-02-15T02:49:44;4.80;99.90
11772;DHT22;12556;55.748;13.194;2024-02-15T02:52:11;4.80;99.90
11772;DHT22;12556;55.748;13.194;2024-02-15T02:54:38;4.70;99.90
11772;DHT22;12556;55.748;13.194;2024-02-15T02:57:05;4.80;99.90
11772;DHT22;12556;55.748;13.194;2024-02-15T02:59:33;4.80;99.90
11772;DHT22;12556;55.748;13.194;2024-02-15T03:02:02;4.70;99.90
11772;DHT22;12556;55.748;13.194;2024-02-15T03:04:29;4.80;99.90
11772;DHT22;12556;55.748;13.194;2024-02-15T03:06:57;4.70;99.90
11772;DHT22;12556;55.748;13.194;2024-02-15T03:09:24;4.80;99.90
11772;DHT22;12556;55.748;13.194;2024-02-15T03:11:55;4.80;99.90
11772;DHT22;12556;55.748;13.194;2024-02-15T03:14:22;4.80;99.90
11772;DHT22;12556;55.748;13.194;2024-02-15T03:16:50;4.90;99.90
11772;DHT22;12556;55.748;13.194;2024-02-15T03:19:18;4.80;99.90
11772;DHT22;12556;55.748;13.194;2024-02-15T03:21:45;4.80;99.90
11772;DHT22;12556;55.748;13.194;2024-02-15T03:24:12;4.80;99.90
11772;DHT22;12556;55.748;13.194;2024-02-15T03:26:40;4.80;99.90
11772;DHT22;12556;55.748;13.194;2024-02-15T03:29:08;4.90;99.90
11772;DHT22;12556;55.748;13.194;2024-02-15T03:31:35;4.80;99.90
11772;DHT22;12556;55.748;13.194;2024-02-15T03:34:03;4.80;99.90
11772;DHT22;12556;55.748;13.194;2024-02-15T03:36:31;4.80;99.90
11772;DHT22;12556;55.748;13.194;2024-02-15T03:38:59;4.80;99.90
11772;DHT22;12556;55.748;13.194;2024-02-15T03:41:27;4.80;99.90
11772;DHT22;12556;55.748;13.194;2024-02-15T03:43:58;4.80;99.90
11772;DHT22;12556;55.748;13.194;2024-02-15T03:46:25;4.80;99.90
11772;DHT22;12556;55.748;13.194;2024-02-15T03:48:53;4.80;99.90
11772;DHT22;12556;55.748;13.194;2024-02-15T03:51:22;4.80;99.90
11772;DHT22;12556;55.748;13.194;2024-02-15T03:53:51;4.80;99.90
11772;DHT22;12556;55.748;13.194;2024-02-15T03:56:18;4.80;99.90
11772;DHT22;12556;55.748;13.194;2024-02-15T03:58:46;4.80;99.90
11772;DHT22;12556;55.748;13.194;2024-02-15T04:01:15;4.90;99.90
11772;DHT22;12556;55.748;13.194;2024-02-15T04:03:42;4.80;99.90
11772;DHT22;12556;55.748;13.194;2024-02-15T04:06:10;4.90;99.90
11772;DHT22;12556;55.748;13.194;2024-02-15T04:08:36;4.90;99.90
11772;DHT22;12556;55.748;13.194;2024-02-15T04:11:05;4.90;99.90
11772;DHT22;12556;55.748;13.194;2024-02-15T04:13:33;4.90;99.90
11772;DHT22;12556;55.748;13.194;2024-02-15T04:16:00;4.90;99.90
11772;DHT22;12556;55.748;13.194;2024-02-15T04:18:27;4.90;99.90
11772;DHT22;12556;55.748;13.194;2024-02-15T04:20:55;4.90;99.90
11772;DHT22;12556;55.748;13.194;2024-02-15T04:23:22;4.90;99.90
11772;DHT22;12556;55.748;13.194;2024-02-15T04:25:49;5.10;99.90
11772;DHT22;12556;55.748;13.194;2024-02-15T04:28:18;5.00;99.90
11772;DHT22;12556;55.748;13.194;2024-02-15T04:30:45;5.00;99.90
11772;DHT22;12556;55.748;13.194;2024-02-15T04:33:14;5.00;99.90
11772;DHT22;12556;55.748;13.194;2024-02-15T04:35:42;5.00;99.90
11772;DHT22;12556;55.748;13.194;2024-02-15T04:38:09;5.00;99.90
11772;DHT22;12556;55.748;13.194;2024-02-15T04:40:36;5.00;99.90
11772;DHT22;12556;55.748;13.194;2024-02-15T04:43:05;5.00;99.90
11772;DHT22;12556;55.748;13.194;2024-02-15T04:45:33;5.00;99.90
11772;DHT22;12556;55.748;13.194;2024-02-15T04:48:00;5.00;99.90
11772;DHT22;12556;55.748;13.194;2024-02-15T04:50:28;5.00;99.90
11772;DHT22;12556;55.748;13.194;2024-02-15T04:52:55;5.10;99.90
11772;DHT22;12556;55.748;13.194;2024-02-15T04:55:22;5.10;99.90
11772;DHT22;12556;55.748;13.194;2024-02-15T04:57:51;5.10;99.90
11772;DHT22;12556;55.748;13.194;2024-02-15T05:00:21;5.10;99.90
11772;DHT22;12556;55.748;13.194;2024-02-15T05:02:50;5.10;99.90
11772;DHT22;12556;55.748;13.194;2024-02-15T05:05:17;5.10;99.90
11772;DHT22;12556;55.748;13.194;2024-02-15T05:07:44;5.10;99.90
11772;DHT22;12556;55.748;13.194;2024-02-15T05:10:11;5.10;99.90
11772;DHT22;12556;55.748;13.194;2024-02-15T05:12:38;5.20;99.90
11772;DHT22;12556;55.748;13.194;2024-02-15T05:15:06;5.10;99.90
11772;DHT22;12556;55.748;13.194;2024-02-15T05:17:36;5.10;99.90
11772;DHT22;12556;55.748;13.194;2024-02-15T05:20:08;5.10;99.90
11772;DHT22;12556;55.748;13.194;2024-02-15T05:22:37;5.10;99.90
11772;DHT22;12556;55.748;13.194;2024-02-15T05:25:06;5.20;99.90
11772;DHT22;12556;55.748;13.194;2024-02-15T05:27:33;5.20;99.90
11772;DHT22;12556;55.748;13.194;2024-02-15T05:30:02;5.10;99.90
11772;DHT22;12556;55.748;13.194;2024-02-15T05:32:32;5.20;99.90
11772;DHT22;12556;55.748;13.194;2024-02-15T05:34:59;5.10;99.90
11772;DHT22;12556;55.748;13.194;2024-02-15T05:37:28;5.20;99.90
11772;DHT22;12556;55.748;13.194;2024-02-15T05:39:55;5.20;99.90
11772;DHT22;12556;55.748;13.194;2024-02-15T05:42:22;5.20;99.90
11772;DHT22;12556;55.748;13.194;2024-02-15T05:44:50;5.20;99.90
11772;DHT22;12556;55.748;13.194;2024-02-15T05:47:17;5.20;99.90
11772;DHT22;12556;55.748;13.194;2024-02-15T05:49:43;5.20;99.90
11772;DHT22;12556;55.748;13.194;2024-02-15T05:52:11;5.20;99.90
11772;DHT22;12556;55.748;13.194;2024-02-15T05:54:40;5.20;99.90
11772;DHT22;12556;55.748;13.194;2024-02-15T05:57:07;5.20;99.90
11772;DHT22;12556;55.748;13.194;2024-02-15T05:59:34;5.20;99.90
11772;DHT22;12556;55.748;13.194;2024-02-15T06:02:01;5.30;99.90
11772;DHT22;12556;55.748;13.194;2024-02-15T06:04:28;5.20;99.90
11772;DHT22;12556;55.748;13.194;2024-02-15T06:06:55;5.20;99.90
11772;DHT22;12556;55.748;13.194;2024-02-15T06:09:27;5.20;99.90
11772;DHT22;12556;55.748;13.194;2024-02-15T06:11:57;5.30;99.90
11772;DHT22;12556;55.748;13.194;2024-02-15T06:14:24;5.30;99.90
11772;DHT22;12556;55.748;13.194;2024-02-15T06:16:51;5.30;99.90
11772;DHT22;12556;55.748;13.194;2024-02-15T06:19:20;5.30;99.90
11772;DHT22;12556;55.748;13.194;2024-02-15T06:21:47;5.30;99.90
11772;DHT22;12556;55.748;13.194;2024-02-15T06:24:14;5.30;99.90
11772;DHT22;12556;55.748;13.194;2024-02-15T06:26:41;5.30;99.90
11772;DHT22;12556;55.748;13.194;2024-02-15T06:29:09;5.40;99.90
11772;DHT22;12556;55.748;13.194;2024-02-15T06:31:53;5.40;99.90
11772;DHT22;12556;55.748;13.194;2024-02-15T06:34:37;5.40;99.90
11772;DHT22;12556;55.748;13.194;2024-02-15T06:37:37;5.30;99.90
11772;DHT22;12556;55.748;13.194;2024-02-15T06:40:22;5.40;99.90
11772;DHT22;12556;55.748;13.194;2024-02-15T06:42:49;5.30;99.90
11772;DHT22;12556;55.748;13.194;2024-02-15T06:45:18;5.30;99.90
11772;DHT22;12556;55.748;13.194;2024-02-15T06:47:45;5.40;99.90
11772;DHT22;12556;55.748;13.194;2024-02-15T06:50:12;5.40;99.90
11772;DHT22;12556;55.748;13.194;2024-02-15T06:52:40;5.40;99.90
11772;DHT22;12556;55.748;13.194;2024-02-15T06:55:07;5.50;99.90
11772;DHT22;12556;55.748;13.194;2024-02-15T06:57:37;5.50;99.90
11772;DHT22;12556;55.748;13.194;2024-02-15T07:00:07;5.50;99.90
11772;DHT22;12556;55.748;13.194;2024-02-15T07:02:36;5.50;99.90
11772;DHT22;12556;55.748;13.194;2024-02-15T07:05:03;5.50;99.90
11772;DHT22;12556;55.748;13.194;2024-02-15T07:07:30;5.50;99.90
11772;DHT22;12556;55.748;13.194;2024-02-15T07:09:57;5.60;99.90
11772;DHT22;12556;55.748;13.194;2024-02-15T07:12:24;5.50;99.90
11772;DHT22;12556;55.748;13.194;2024-02-15T07:14:51;5.60;99.90
11772;DHT22;12556;55.748;13.194;2024-02-15T07:17:18;5.60;99.90
11772;DHT22;12556;55.748;13.194;2024-02-15T07:19:47;5.60;99.90
11772;DHT22;12556;55.748;13.194;2024-02-15T07:22:14;5.60;99.90
11772;DHT22;12556;55.748;13.194;2024-02-15T07:24:42;5.60;99.90
11772;DHT22;12556;55.748;13.194;2024-02-15T07:27:09;5.70;99.90
11772;DHT22;12556;55.748;13.194;2024-02-15T07:29:37;5.70;99.90
11772;DHT22;12556;55.748;13.194;2024-02-15T07:32:04;5.70;99.90
11772;DHT22;12556;55.748;13.194;2024-02-15T07:34:31;5.70;99.90
11772;DHT22;12556;55.748;13.194;2024-02-15T07:37:02;5.80;99.90
11772;DHT22;12556;55.748;13.194;2024-02-15T07:39:29;5.70;99.90
11772;DHT22;12556;55.748;13.194;2024-02-15T07:41:56;5.70;99.90
11772;DHT22;12556;55.748;13.194;2024-02-15T07:44:24;5.70;99.90
11772;DHT22;12556;55.748;13.194;2024-02-15T07:46:51;5.70;99.90
11772;DHT22;12556;55.748;13.194;2024-02-15T07:49:17;5.80;99.90
11772;DHT22;12556;55.748;13.194;2024-02-15T07:51:44;5.80;99.90
11772;DHT22;12556;55.748;13.194;2024-02-15T07:54:18;5.80;99.90
11772;DHT22;12556;55.748;13.194;2024-02-15T07:56:46;5.80;99.90
11772;DHT22;12556;55.748;13.194;2024-02-15T07:59:14;5.80;99.90
11772;DHT22;12556;55.748;13.194;2024-02-15T08:01:42;5.80;99.90
11772;DHT22;12556;55.748;13.194;2024-02-15T08:04:09;5.80;99.90
11772;DHT22;12556;55.748;13.194;2024-02-15T08:06:36;5.80;99.90
11772;DHT22;12556;55.748;13.194;2024-02-15T08:09:04;5.80;99.90
11772;DHT22;12556;55.748;13.194;2024-02-15T08:11:33;5.80;99.90
11772;DHT22;12556;55.748;13.194;2024-02-15T08:14:00;5.80;99.90
11772;DHT22;12556;55.748;13.194;2024-02-15T08:16:26;5.90;99.90
11772;DHT22;12556;55.748;13.194;2024-02-15T08:18:55;5.90;99.90
11772;DHT22;12556;55.748;13.194;2024-02-15T08:21:26;5.90;99.90
11772;DHT22;12556;55.748;13.194;2024-02-15T08:23:55;5.90;99.90
11772;DHT22;12556;55.748;13.194;2024-02-15T08:26:22;6.00;99.90
11772;DHT22;12556;55.748;13.194;2024-02-15T08:28:50;6.00;99.90
11772;DHT22;12556;55.748;13.194;2024-02-15T08:31:18;6.00;99.90
11772;DHT22;12556;55.748;13.194;2024-02-15T08:33:45;6.00;99.90
11772;DHT22;12556;55.748;13.194;2024-02-15T08:36:12;6.10;99.90
11772;DHT22;12556;55.748;13.194;2024-02-15T08:38:39;6.10;99.90
11772;DHT22;12556;55.748;13.194;2024-02-15T08:41:06;6.10;99.90
11772;DHT22;12556;55.748;13.194;2024-02-15T08:43:34;6.20;99.90
11772;DHT22;12556;55.748;13.194;2024-02-15T08:46:05;6.20;99.90
11772;DHT22;12556;55.748;13.194;2024-02-15T08:48:32;6.30;99.90
11772;DHT22;12556;55.748;13.194;2024-02-15T08:50:59;6.20;99.90
11772;DHT22;12556;55.748;13.194;2024-02-15T08:53:26;6.30;99.90
11772;DHT22;12556;55.748;13.194;2024-02-15T08:55:53;6.30;99.90
11772;DHT22;12556;55.748;13.194;2024-02-15T08:58:20;6.30;99.90
11772;DHT22;12556;55.748;13.194;2024-02-15T09:00:47;6.40;99.90
11772;DHT22;12556;55.748;13.194;2024-02-15T09:03:15;6.40;99.90
11772;DHT22;12556;55.748;13.194;2024-02-15T09:05:44;6.50;99.90
11772;DHT22;12556;55.748;13.194;2024-02-15T09:08:10;6.40;99.90
11772;DHT22;12556;55.748;13.194;2024-02-15T09:10:37;6.50;99.90
11772;DHT22;12556;55.748;13.194;2024-02-15T09:13:04;6.50;99.90
11772;DHT22;12556;55.748;13.194;2024-02-15T09:15:32;6.50;99.90
11772;DHT22;12556;55.748;13.194;2024-02-15T09:17:59;6.60;99.90
11772;DHT22;12556;55.748;13.194;2024-02-15T09:20:27;6.60;99.90
11772;DHT22;12556;55.748;13.194;2024-02-15T09:22:55;6.70;99.90
11772;DHT22;12556;55.748;13.194;2024-02-15T09:25:23;6.70;99.90
11772;DHT22;12556;55.748;13.194;2024-02-15T09:27:50;6.70;99.90
11772;DHT22;12556;55.748;13.194;2024-02-15T09:30:19;6.80;99.90
11772;DHT22;12556;55.748;13.194;2024-02-15T09:32:50;6.80;99.90
11772;DHT22;12556;55.748;13.194;2024-02-15T09:35:17;6.90;99.90
11772;DHT22;12556;55.748;13.194;2024-02-15T09:37:47;6.90;99.90
11772;DHT22;12556;55.748;13.194;2024-02-15T09:40:15;7.00;99.90
11772;DHT22;12556;55.748;13.194;2024-02-15T09:42:43;7.00;99.90
11772;DHT22;12556;55.748;13.194;2024-02-15T09:45:11;7.10;99.90
11772;DHT22;12556;55.748;13.194;2024-02-15T09:47:40;7.10;99.90
11772;DHT22;12556;55.748;13.194;2024-02-15T09:50:10;7.20;99.90
11772;DHT22;12556;55.748;13.194;2024-02-15T09:52:39;7.20;99.90
11772;DHT22;12556;55.748;13.194;2024-02-15T09:55:08;7.40;99.90
11772;DHT22;12556;55.748;13.194;2024-02-15T09:57:38;7.40;99.90
11772;DHT22;12556;55.748;13.194;2024-02-15T10:00:06;7.40;99.90
11772;DHT22;12556;55.748;13.194;2024-02-15T10:02:35;7.50;99.90
11772;DHT22;12556;55.748;13.194;2024-02-15T10:05:04;7.50;99.90
11772;DHT22;12556;55.748;13.194;2024-02-15T10:07:31;7.60;99.90
11772;DHT22;12556;55.748;13.194;2024-02-15T10:10:16;7.70;99.90
11772;DHT22;12556;55.748;13.194;2024-02-15T10:12:44;7.70;99.90
11772;DHT22;12556;55.748;13.194;2024-02-15T10:15:27;7.70;99.90
11772;DHT22;12556;55.748;13.194;2024-02-15T10:17:55;7.70;99.90
11772;DHT22;12556;55.748;13.194;2024-02-15T10:20:22;7.80;99.90
11772;DHT22;12556;55.748;13.194;2024-02-15T10:22:51;7.90;99.90
11772;DHT22;12556;55.748;13.194;2024-02-15T10:25:20;7.90;99.90
11772;DHT22;12556;55.748;13.194;2024-02-15T10:27:48;8.00;99.90
11772;DHT22;12556;55.748;13.194;2024-02-15T10:30:19;8.00;99.90
11772;DHT22;12556;55.748;13.194;2024-02-15T10:32:46;8.10;99.90
11772;DHT22;12556;55.748;13.194;2024-02-15T10:35:20;8.10;99.90
11772;DHT22;12556;55.748;13.194;2024-02-15T10:37:48;8.20;99.90
11772;DHT22;12556;55.748;13.194;2024-02-15T10:40:21;8.20;99.90
11772;DHT22;12556;55.748;13.194;2024-02-15T10:42:51;8.20;99.90
11772;DHT22;12556;55.748;13.194;2024-02-15T10:45:18;8.20;99.90
11772;DHT22;12556;55.748;13.194;2024-02-15T10:47:46;8.30;99.90
11772;DHT22;12556;55.748;13.194;2024-02-15T10:50:13;8.30;99.90
11772;DHT22;12556;55.748;13.194;2024-02-15T10:52:48;8.30;99.90
11772;DHT22;12556;55.748;13.194;2024-02-15T10:55:26;8.40;99.90
11772;DHT22;12556;55.748;13.194;2024-02-15T10:58:00;8.40;99.90
11772;DHT22;12556;55.748;13.194;2024-02-15T11:00:30;8.50;99.90
11772;DHT22;12556;55.748;13.194;2024-02-15T11:03:01;8.50;99.90
11772;DHT22;12556;55.748;13.194;2024-02-15T11:05:32;8.50;99.90
11772;DHT22;12556;55.748;13.194;2024-02-15T11:08:03;8.50;99.90
11772;DHT22;12556;55.748;13.194;2024-02-15T11:10:32;8.60;99.90
11772;DHT22;12556;55.748;13.194;2024-02-15T11:12:59;8.60;99.90
11772;DHT22;12556;55.748;13.194;2024-02-15T11:15:40;8.70;99.90
11772;DHT22;12556;55.748;13.194;2024-02-15T11:18:10;8.70;99.90
11772;DHT22;12556;55.748;13.194;2024-02-15T11:20:46;8.70;99.90
11772;DHT22;12556;55.748;13.194;2024-02-15T11:23:24;8.80;99.90
11772;DHT22;12556;55.748;13.194;2024-02-15T11:25:53;8.80;99.90
11772;DHT22;12556;55.748;13.194;2024-02-15T11:28:40;8.80;99.90
11772;DHT22;12556;55.748;13.194;2024-02-15T11:34:44;8.80;99.90
11772;DHT22;12556;55.748;13.194;2024-02-15T11:40:22;8.90;99.90
11772;DHT22;12556;55.748;13.194;2024-02-15T11:42:51;8.90;99.90
11772;DHT22;12556;55.748;13.194;2024-02-15T11:45:19;8.90;99.90
11772;DHT22;12556;55.748;13.194;2024-02-15T11:47:48;8.90;99.90
11772;DHT22;12556;55.748;13.194;2024-02-15T11:50:16;9.00;99.90
11772;DHT22;12556;55.748;13.194;2024-02-15T11:52:44;8.90;99.90
11772;DHT22;12556;55.748;13.194;2024-02-15T11:55:12;8.90;99.90
11772;DHT22;12556;55.748;13.194;2024-02-15T11:57:39;8.90;99.90
11772;DHT22;12556;55.748;13.194;2024-02-15T12:00:21;8.90;99.90
11772;DHT22;12556;55.748;13.194;2024-02-15T12:03:06;8.90;99.90
11772;DHT22;12556;55.748;13.194;2024-02-15T12:05:51;8.90;99.90
11772;DHT22;12556;55.748;13.194;2024-02-15T12:08:36;8.90;99.90
11772;DHT22;12556;55.748;13.194;2024-02-15T12:11:20;8.90;99.90
11772;DHT22;12556;55.748;13.194;2024-02-15T12:14:04;8.90;99.90
11772;DHT22;12556;55.748;13.194;2024-02-15T12:17:03;8.90;99.90
11772;DHT22;12556;55.748;13.194;2024-02-15T12:19:48;9.00;99.90
11772;DHT22;12556;55.748;13.194;2024-02-15T12:22:16;9.00;99.90
11772;DHT22;12556;55.748;13.194;2024-02-15T12:24:52;9.00;99.90
11772;DHT22;12556;55.748;13.194;2024-02-15T12:27:19;9.00;99.90
11772;DHT22;12556;55.748;13.194;2024-02-15T12:29:55;9.10;99.90
11772;DHT22;12556;55.748;13.194;2024-02-15T12:32:24;9.30;99.90
11772;DHT22;12556;55.748;13.194;2024-02-15T12:34:51;9.10;99.90
11772;DHT22;12556;55.748;13.194;2024-02-15T12:37:20;9.10;99.90
11772;DHT22;12556;55.748;13.194;2024-02-15T12:39:47;9.20;99.90
11772;DHT22;12556;55.748;13.194;2024-02-15T12:42:15;9.20;99.90
11772;DHT22;12556;55.748;13.194;2024-02-15T12:44:44;9.20;99.90
11772;DHT22;12556;55.748;13.194;2024-02-15T12:47:22;9.30;99.90
11772;DHT22;12556;55.748;13.194;2024-02-15T12:49:50;9.30;99.90
11772;DHT22;12556;55.748;13.194;2024-02-15T12:52:36;9.20;99.90
11772;DHT22;12556;55.748;13.194;2024-02-15T12:55:11;9.20;99.90
11772;DHT22;12556;55.748;13.194;2024-02-15T12:57:39;9.30;99.90
11772;DHT22;12556;55.748;13.194;2024-02-15T13:00:11;9.20;99.90
11772;DHT22;12556;55.748;13.194;2024-02-15T13:02:45;9.20;99.90
11772;DHT22;12556;55.748;13.194;2024-02-15T13:05:12;9.30;99.90
11772;DHT22;12556;55.748;13.194;2024-02-15T13:07:40;9.30;99.90
11772;DHT22;12556;55.748;13.194;2024-02-15T13:10:07;9.30;99.90
11772;DHT22;12556;55.748;13.194;2024-02-15T13:12:35;9.30;99.90
11772;DHT22;12556;55.748;13.194;2024-02-15T13:15:04;9.30;99.90
11772;DHT22;12556;55.748;13.194;2024-02-15T13:17:37;9.30;99.90
11772;DHT22;12556;55.748;13.194;2024-02-15T13:20:07;9.30;99.90
11772;DHT22;12556;55.748;13.194;2024-02-15T13:22:38;9.30;99.90
11772;DHT22;12556;55.748;13.194;2024-02-15T13:25:06;9.20;99.90
11772;DHT22;12556;55.748;13.194;2024-02-15T13:27:34;9.20;99.90
11772;DHT22;12556;55.748;13.194;2024-02-15T13:30:02;9.20;99.90
11772;DHT22;12556;55.748;13.194;2024-02-15T13:32:29;9.20;99.90
11772;DHT22;12556;55.748;13.194;2024-02-15T13:34:56;9.20;99.90
11772;DHT22;12556;55.748;13.194;2024-02-15T13:37:26;9.20;99.90
11772;DHT22;12556;55.748;13.194;2024-02-15T13:39:53;9.20;99.90
11772;DHT22;12556;55.748;13.194;2024-02-15T13:42:20;9.20;99.90
11772;DHT22;12556;55.748;13.194;2024-02-15T13:44:47;9.20;99.90
11772;DHT22;12556;55.748;13.194;2024-02-15T13:47:14;9.20;99.90
11772;DHT22;12556;55.748;13.194;2024-02-15T13:49:42;9.20;99.90
11772;DHT22;12556;55.748;13.194;2024-02-15T13:52:09;9.20;99.90
11772;DHT22;12556;55.748;13.194;2024-02-15T13:54:38;9.20;99.90
11772;DHT22;12556;55.748;13.194;2024-02-15T13:57:05;9.30;99.90
11772;DHT22;12556;55.748;13.194;2024-02-15T13:59:33;9.20;99.90
11772;DHT22;12556;55.748;13.194;2024-02-15T14:02:00;9.20;99.90
11772;DHT22;12556;55.748;13.194;2024-02-15T14:04:29;9.20;99.90
11772;DHT22;12556;55.748;13.194;2024-02-15T14:06:57;9.20;99.90
11772;DHT22;12556;55.748;13.194;2024-02-15T14:09:25;9.20;99.90
11772;DHT22;12556;55.748;13.194;2024-02-15T14:11:54;9.20;99.90
11772;DHT22;12556;55.748;13.194;2024-02-15T14:14:21;9.20;99.90
11772;DHT22;12556;55.748;13.194;2024-02-15T14:16:47;9.10;99.90
11772;DHT22;12556;55.748;13.194;2024-02-15T14:19:14;9.10;99.90
11772;DHT22;12556;55.748;13.194;2024-02-15T14:21:43;9.10;99.90
11772;DHT22;12556;55.748;13.194;2024-02-15T14:24:10;9.10;99.90
11772;DHT22;12556;55.748;13.194;2024-02-15T14:26:37;9.10;99.90
11772;DHT22;12556;55.748;13.194;2024-02-15T14:29:05;9.10;99.90
11772;DHT22;12556;55.748;13.194;2024-02-15T14:31:32;9.10;99.90
11772;DHT22;12556;55.748;13.194;2024-02-15T14:34:16;9.10;99.90
11772;DHT22;12556;55.748;13.194;2024-02-15T14:36:46;9.10;99.90
11772;DHT22;12556;55.748;13.194;2024-02-15T14:39:13;9.10;99.90
11772;DHT22;12556;55.748;13.194;2024-02-15T14:41:40;9.10;99.90
11772;DHT22;12556;55.748;13.194;2024-02-15T14:44:10;9.20;99.90
11772;DHT22;12556;55.748;13.194;2024-02-15T14:46:38;9.10;99.90
11772;DHT22;12556;55.748;13.194;2024-02-15T14:49:06;9.20;99.90
11772;DHT22;12556;55.748;13.194;2024-02-15T14:51:34;9.10;99.90
11772;DHT22;12556;55.748;13.194;2024-02-15T14:54:02;9.10;99.90
11772;DHT22;12556;55.748;13.194;2024-02-15T14:56:29;9.10;99.90
11772;DHT22;12556;55.748;13.194;2024-02-15T14:58:58;9.10;99.90
11772;DHT22;12556;55.748;13.194;2024-02-15T15:01:27;9.10;99.90
11772;DHT22;12556;55.748;13.194;2024-02-15T15:03:55;9.10;99.90
11772;DHT22;12556;55.748;13.194;2024-02-15T15:06:24;9.10;99.90
11772;DHT22;12556;55.748;13.194;2024-02-15T15:09:08;9.10;99.90
11772;DHT22;12556;55.748;13.194;2024-02-15T15:11:53;9.10;99.90
11772;DHT22;12556;55.748;13.194;2024-02-15T15:14:37;9.10;99.90
11772;DHT22;12556;55.748;13.194;2024-02-15T15:17:06;9.10;99.90
11772;DHT22;12556;55.748;13.194;2024-02-15T15:19:33;9.10;99.90
11772;DHT22;12556;55.748;13.194;2024-02-15T15:22:02;9.10;99.90
11772;DHT22;12556;55.748;13.194;2024-02-15T15:24:30;9.10;99.90
11772;DHT22;12556;55.748;13.194;2024-02-15T15:26:58;9.00;99.90
11772;DHT22;12556;55.748;13.194;2024-02-15T15:29:25;9.00;99.90
11772;DHT22;12556;55.748;13.194;2024-02-15T15:31:52;9.00;99.90
11772;DHT22;12556;55.748;13.194;2024-02-15T15:34:21;9.00;99.90
11772;DHT22;12556;55.748;13.194;2024-02-15T15:36:47;9.00;99.90
11772;DHT22;12556;55.748;13.194;2024-02-15T15:39:15;9.00;99.90
11772;DHT22;12556;55.748;13.194;2024-02-15T15:41:43;9.00;99.90
11772;DHT22;12556;55.748;13.194;2024-02-15T15:44:10;9.00;99.90
11772;DHT22;12556;55.748;13.194;2024-02-15T15:46:37;9.00;99.90
11772;DHT22;12556;55.748;13.194;2024-02-15T15:49:05;9.00;99.90
11772;DHT22;12556;55.748;13.194;2024-02-15T15:51:33;9.00;99.90